sensor_id;sensor_type;location;lat;lon;timestamp;P1;durP1;ratioP1;P2;durP2;ratioP2
4601;SDS011;2313;48.552;9.370;2024-03-02T00:01:07;21.60;;;13.10;;
4601;SDS011;2313;48.552;9.370;2024-03-02T00:03:36;17.80;;;11.27;;
4601;SDS011;2313;48.552;9.370;2024-03-02T00:06:02;20.70;;;13.27;;
4601;SDS011;2313;48.552;9.370;2024-03-02T00:08:27;17.77;;;12.53;;
4601;SDS011;2313;48.552;9.370;2024-03-02T00:10:58;22.00;;;12.63;;
4601;SDS011;2313;48.552;9.370;2024-03-02T00:13:24;15.87;;;10.87;;
4601;SDS011;2313;48.552;9.370;2024-03-02T00:15:53;19.70;;;13.00;;
4601;SDS011;2313;48.552;9.370;2024-03-02T00:20:49;20.90;;;12.40;;
4601;SDS011;2313;48.552;9.370;2024-03-02T00:23:27;24.90;;;13.43;;
4601;SDS011;2313;48.552;9.370;2024-03-02T00:25:56;19.77;;;12.80;;
4601;SDS011;2313;48.552;9.370;2024-03-02T00:33:26;19.90;;;12.37;;
4601;SDS011;2313;48.552;9.370;2024-03-02T00:35:53;21.50;;;13.30;;
4601;SDS011;2313;48.552;9.370;2024-03-02T00:38:19;18.80;;;13.60;;
4601;SDS011;2313;48.552;9.370;2024-03-02T00:40:45;19.23;;;13.23;;
4601;SDS011;2313;48.552;9.370;2024-03-02T00:46:10;23.07;;;12.20;;
4601;SDS011;2313;48.552;9.370;2024-03-02T00:49:24;20.70;;;13.13;;
4601;SDS011;2313;48.552;9.370;2024-03-02T00:51:45;19.57;;;13.43;;
4601;SDS011;2313;48.552;9.370;2024-03-02T00:54:13;23.57;;;13.50;;
4601;SDS011;2313;48.552;9.370;2024-03-02T00:56:40;20.70;;;12.97;;
4601;SDS011;2313;48.552;9.370;2024-03-02T00:59:07;21.43;;;13.83;;
4601;SDS011;2313;48.552;9.370;2024-03-02T01:01:33;15.53;;;11.03;;
4601;SDS011;2313;48.552;9.370;2024-03-02T01:03:59;20.67;;;12.87;;
4601;SDS011;2313;48.552;9.370;2024-03-02T01:06:25;18.73;;;12.07;;
4601;SDS011;2313;48.552;9.370;2024-03-02T01:08:50;16.70;;;12.30;;
4601;SDS011;2313;48.552;9.370;2024-03-02T01:11:17;17.80;;;12.90;;
4601;SDS011;2313;48.552;9.370;2024-03-02T01:13:43;17.37;;;11.73;;
4601;SDS011;2313;48.552;9.370;2024-03-02T01:16:09;18.37;;;12.47;;
4601;SDS011;2313;48.552;9.370;2024-03-02T01:18:35;14.30;;;11.20;;
4601;SDS011;2313;48.552;9.370;2024-03-02T01:21:01;19.83;;;12.47;;
4601;SDS011;2313;48.552;9.370;2024-03-02T01:23:26;17.27;;;12.00;;
4601;SDS011;2313;48.552;9.370;2024-03-02T01:25:52;18.23;;;11.77;;
4601;SDS011;2313;48.552;9.370;2024-03-02T01:28:18;19.73;;;12.90;;
4601;SDS011;2313;48.552;9.370;2024-03-02T01:30:45;17.80;;;11.87;;
4601;SDS011;2313;48.552;9.370;2024-03-02T01:33:12;19.33;;;12.23;;
4601;SDS011;2313;48.552;9.370;2024-03-02T01:35:37;20.60;;;12.70;;
4601;SDS011;2313;48.552;9.370;2024-03-02T01:38:03;16.53;;;11.80;;
4601;SDS011;2313;48.552;9.370;2024-03-02T01:40:31;16.37;;;12.10;;
4601;SDS011;2313;48.552;9.370;2024-03-02T01:42:57;15.27;;;11.30;;
4601;SDS011;2313;48.552;9.370;2024-03-02T01:45:24;20.13;;;11.47;;
4601;SDS011;2313;48.552;9.370;2024-03-02T01:47:49;16.90;;;11.83;;
4601;SDS011;2313;48.552;9.370;2024-03-02T01:50:15;16.23;;;11.40;;
4601;SDS011;2313;48.552;9.370;2024-03-02T01:52:49;20.10;;;12.20;;
4601;SDS011;2313;48.552;9.370;2024-03-02T01:55:14;19.70;;;11.57;;
4601;SDS011;2313;48.552;9.370;2024-03-02T01:57:40;16.33;;;11.10;;
4601;SDS011;2313;48.552;9.370;2024-03-02T02:00:06;20.27;;;12.30;;
4601;SDS011;2313;48.552;9.370;2024-03-02T02:02:32;24.80;;;12.23;;
4601;SDS011;2313;48.552;9.370;2024-03-02T02:04:58;19.73;;;12.50;;
4601;SDS011;2313;48.552;9.370;2024-03-02T02:07:23;19.90;;;13.60;;
4601;SDS011;2313;48.552;9.370;2024-03-02T02:09:49;19.70;;;12.03;;
4601;SDS011;2313;48.552;9.370;2024-03-02T02:12:14;17.53;;;12.47;;
4601;SDS011;2313;48.552;9.370;2024-03-02T02:14:46;16.77;;;11.90;;
4601;SDS011;2313;48.552;9.370;2024-03-02T02:17:13;19.83;;;12.63;;
4601;SDS011;2313;48.552;9.370;2024-03-02T02:19:40;15.20;;;10.43;;
4601;SDS011;2313;48.552;9.370;2024-03-02T02:22:06;14.97;;;11.23;;
4601;SDS011;2313;48.552;9.370;2024-03-02T02:24:31;17.80;;;11.37;;
4601;SDS011;2313;48.552;9.370;2024-03-02T02:26:57;15.67;;;11.27;;
4601;SDS011;2313;48.552;9.370;2024-03-02T02:29:23;16.67;;;10.67;;
4601;SDS011;2313;48.552;9.370;2024-03-02T02:31:48;17.87;;;10.80;;
4601;SDS011;2313;48.552;9.370;2024-03-02T02:34:14;14.80;;;9.43;;
4601;SDS011;2313;48.552;9.370;2024-03-02T02:36:40;14.80;;;10.20;;
4601;SDS011;2313;48.552;9.370;2024-03-02T02:39:08;18.40;;;9.93;;
4601;SDS011;2313;48.552;9.370;2024-03-02T02:41:37;16.50;;;11.00;;
4601;SDS011;2313;48.552;9.370;2024-03-02T02:44:03;13.57;;;9.93;;
4601;SDS011;2313;48.552;9.370;2024-03-02T02:46:29;14.93;;;9.60;;
4601;SDS011;2313;48.552;9.370;2024-03-02T02:48:55;15.50;;;10.27;;
4601;SDS011;2313;48.552;9.370;2024-03-02T02:51:20;14.37;;;9.20;;
4601;SDS011;2313;48.552;9.370;2024-03-02T02:53:46;13.43;;;9.20;;
4601;SDS011;2313;48.552;9.370;2024-03-02T02:56:11;12.03;;;7.83;;
4601;SDS011;2313;48.552;9.370;2024-03-02T02:58:37;12.77;;;8.80;;
4601;SDS011;2313;48.552;9.370;2024-03-02T03:01:03;13.50;;;9.27;;
4601;SDS011;2313;48.552;9.370;2024-03-02T03:03:28;14.97;;;9.27;;
4601;SDS011;2313;48.552;9.370;2024-03-02T03:05:55;13.77;;;8.67;;
4601;SDS011;2313;48.552;9.370;2024-03-02T03:08:20;12.20;;;9.40;;
4601;SDS011;2313;48.552;9.370;2024-03-02T03:10:48;13.30;;;9.10;;
4601;SDS011;2313;48.552;9.370;2024-03-02T03:13:14;12.97;;;9.00;;
4601;SDS011;2313;48.552;9.370;2024-03-02T03:15:40;14.20;;;8.00;;
4601;SDS011;2313;48.552;9.370;2024-03-02T03:18:05;11.03;;;8.23;;
4601;SDS011;2313;48.552;9.370;2024-03-02T03:20:32;11.83;;;8.40;;
4601;SDS011;2313;48.552;9.370;2024-03-02T03:22:58;16.37;;;9.60;;
4601;SDS011;2313;48.552;9.370;2024-03-02T03:25:25;17.10;;;9.67;;
4601;SDS011;2313;48.552;9.370;2024-03-02T03:27:50;15.27;;;9.27;;
4601;SDS011;2313;48.552;9.370;2024-03-02T03:30:19;15.30;;;9.00;;
4601;SDS011;2313;48.552;9.370;2024-03-02T03:32:44;13.53;;;9.80;;
4601;SDS011;2313;48.552;9.370;2024-03-02T03:35:10;14.37;;;8.57;;
4601;SDS011;2313;48.552;9.370;2024-03-02T03:37:37;14.97;;;9.13;;
4601;SDS011;2313;48.552;9.370;2024-03-02T03:40:03;12.57;;;8.90;;
4601;SDS011;2313;48.552;9.370;2024-03-02T03:42:35;10.60;;;8.00;;
4601;SDS011;2313;48.552;9.370;2024-03-02T03:45:01;12.63;;;8.77;;
4601;SDS011;2313;48.552;9.370;2024-03-02T03:47:27;10.67;;;7.13;;
4601;SDS011;2313;48.552;9.370;2024-03-02T03:49:53;11.97;;;8.83;;
4601;SDS011;2313;48.552;9.370;2024-03-02T03:52:19;11.13;;;7.93;;
4601;SDS011;2313;48.552;9.370;2024-03-02T03:54:44;12.03;;;7.90;;
4601;SDS011;2313;48.552;9.370;2024-03-02T03:57:10;10.63;;;8.00;;
4601;SDS011;2313;48.552;9.370;2024-03-02T03:59:35;88.47;;;36.23;;
4601;SDS011;2313;48.552;9.370;2024-03-02T04:02:04;10.47;;;6.83;;
4601;SDS011;2313;48.552;9.370;2024-03-02T04:04:29;12.87;;;7.87;;
4601;SDS011;2313;48.552;9.370;2024-03-02T04:06:55;12.77;;;8.63;;
4601;SDS011;2313;48.552;9.370;2024-03-02T04:09:20;10.37;;;6.10;;
4601;SDS011;2313;48.552;9.370;2024-03-02T04:11:46;10.10;;;7.67;;
4601;SDS011;2313;48.552;9.370;2024-03-02T04:14:11;10.83;;;7.00;;
4601;SDS011;2313;48.552;9.370;2024-03-02T04:16:37;10.80;;;6.90;;
4601;SDS011;2313;48.552;9.370;2024-03-02T04:19:04;8.97;;;5.00;;
4601;SDS011;2313;48.552;9.370;2024-03-02T04:21:30;9.97;;;6.60;;
4601;SDS011;2313;48.552;9.370;2024-03-02T04:23:55;7.50;;;5.20;;
4601;SDS011;2313;48.552;9.370;2024-03-02T04:26:23;8.10;;;5.73;;
4601;SDS011;2313;48.552;9.370;2024-03-02T04:28:50;7.93;;;5.90;;
4601;SDS011;2313;48.552;9.370;2024-03-02T04:31:16;8.03;;;5.87;;
4601;SDS011;2313;48.552;9.370;2024-03-02T04:33:42;8.20;;;5.83;;
4601;SDS011;2313;48.552;9.370;2024-03-02T04:36:07;9.83;;;6.93;;
4601;SDS011;2313;48.552;9.370;2024-03-02T04:38:36;9.17;;;6.73;;
4601;SDS011;2313;48.552;9.370;2024-03-02T04:41:03;10.90;;;6.50;;
4601;SDS011;2313;48.552;9.370;2024-03-02T04:43:31;10.90;;;6.20;;
4601;SDS011;2313;48.552;9.370;2024-03-02T04:45:57;7.37;;;5.00;;
4601;SDS011;2313;48.552;9.370;2024-03-02T04:48:23;7.70;;;5.57;;
4601;SDS011;2313;48.552;9.370;2024-03-02T04:50:49;6.53;;;5.30;;
4601;SDS011;2313;48.552;9.370;2024-03-02T04:53:15;8.23;;;5.50;;
4601;SDS011;2313;48.552;9.370;2024-03-02T04:55:40;7.20;;;5.93;;
4601;SDS011;2313;48.552;9.370;2024-03-02T04:58:06;9.60;;;6.40;;
4601;SDS011;2313;48.552;9.370;2024-03-02T05:00:32;12.87;;;8.27;;
4601;SDS011;2313;48.552;9.370;2024-03-02T05:02:57;8.97;;;6.60;;
4601;SDS011;2313;48.552;9.370;2024-03-02T05:05:23;10.00;;;7.00;;
4601;SDS011;2313;48.552;9.370;2024-03-02T05:07:49;8.60;;;6.43;;
4601;SDS011;2313;48.552;9.370;2024-03-02T05:10:14;9.27;;;6.50;;
4601;SDS011;2313;48.552;9.370;2024-03-02T05:12:40;10.07;;;7.40;;
4601;SDS011;2313;48.552;9.370;2024-03-02T05:15:09;9.67;;;6.83;;
4601;SDS011;2313;48.552;9.370;2024-03-02T05:17:37;9.77;;;6.43;;
4601;SDS011;2313;48.552;9.370;2024-03-02T05:20:03;8.07;;;6.67;;
4601;SDS011;2313;48.552;9.370;2024-03-02T05:22:30;10.30;;;6.40;;
4601;SDS011;2313;48.552;9.370;2024-03-02T05:24:56;7.43;;;5.20;;
4601;SDS011;2313;48.552;9.370;2024-03-02T05:27:21;8.43;;;6.53;;
4601;SDS011;2313;48.552;9.370;2024-03-02T05:29:47;9.90;;;5.97;;
4601;SDS011;2313;48.552;9.370;2024-03-02T05:32:13;7.67;;;6.00;;
4601;SDS011;2313;48.552;9.370;2024-03-02T05:34:38;8.17;;;6.43;;
4601;SDS011;2313;48.552;9.370;2024-03-02T05:37:04;7.90;;;5.87;;
4601;SDS011;2313;48.552;9.370;2024-03-02T05:39:29;10.47;;;6.90;;
4601;SDS011;2313;48.552;9.370;2024-03-02T05:41:55;10.53;;;6.60;;
4601;SDS011;2313;48.552;9.370;2024-03-02T05:44:21;7.60;;;5.40;;
4601;SDS011;2313;48.552;9.370;2024-03-02T05:46:47;7.60;;;5.30;;
4601;SDS011;2313;48.552;9.370;2024-03-02T05:49:13;6.83;;;5.33;;
4601;SDS011;2313;48.552;9.370;2024-03-02T05:51:38;7.37;;;5.37;;
4601;SDS011;2313;48.552;9.370;2024-03-02T05:54:04;11.13;;;6.37;;
4601;SDS011;2313;48.552;9.370;2024-03-02T05:56:29;14.90;;;10.37;;
4601;SDS011;2313;48.552;9.370;2024-03-02T05:58:55;9.70;;;8.10;;
4601;SDS011;2313;48.552;9.370;2024-03-02T06:01:40;7.03;;;6.10;;
4601;SDS011;2313;48.552;9.370;2024-03-02T06:04:09;7.77;;;6.37;;
4601;SDS011;2313;48.552;9.370;2024-03-02T06:06:38;7.80;;;5.90;;
4601;SDS011;2313;48.552;9.370;2024-03-02T06:09:07;6.43;;;5.13;;
4601;SDS011;2313;48.552;9.370;2024-03-02T06:11:34;6.73;;;4.70;;
4601;SDS011;2313;48.552;9.370;2024-03-02T06:14:00;6.23;;;5.00;;
4601;SDS011;2313;48.552;9.370;2024-03-02T06:16:26;8.83;;;6.17;;
4601;SDS011;2313;48.552;9.370;2024-03-02T06:18:51;6.43;;;5.03;;
4601;SDS011;2313;48.552;9.370;2024-03-02T06:21:18;7.03;;;5.17;;
4601;SDS011;2313;48.552;9.370;2024-03-02T06:23:44;7.03;;;5.70;;
4601;SDS011;2313;48.552;9.370;2024-03-02T06:26:10;8.40;;;6.27;;
4601;SDS011;2313;48.552;9.370;2024-03-02T06:28:36;6.37;;;5.20;;
4601;SDS011;2313;48.552;9.370;2024-03-02T06:31:01;7.43;;;4.90;;
4601;SDS011;2313;48.552;9.370;2024-03-02T06:33:27;8.87;;;4.80;;
4601;SDS011;2313;48.552;9.370;2024-03-02T06:35:53;7.17;;;5.17;;
4601;SDS011;2313;48.552;9.370;2024-03-02T06:38:19;7.70;;;5.83;;
4601;SDS011;2313;48.552;9.370;2024-03-02T06:40:45;6.30;;;4.87;;
4601;SDS011;2313;48.552;9.370;2024-03-02T06:43:10;3.90;;;3.50;;
4601;SDS011;2313;48.552;9.370;2024-03-02T06:45:36;5.07;;;4.27;;
4601;SDS011;2313;48.552;9.370;2024-03-02T06:48:02;5.27;;;3.60;;
4601;SDS011;2313;48.552;9.370;2024-03-02T06:50:27;6.27;;;4.30;;
4601;SDS011;2313;48.552;9.370;2024-03-02T06:52:53;5.00;;;3.80;;
4601;SDS011;2313;48.552;9.370;2024-03-02T06:55:21;4.60;;;3.50;;
4601;SDS011;2313;48.552;9.370;2024-03-02T06:57:46;4.70;;;3.87;;
4601;SDS011;2313;48.552;9.370;2024-03-02T07:00:12;4.57;;;3.60;;
4601;SDS011;2313;48.552;9.370;2024-03-02T07:02:39;10.97;;;4.47;;
4601;SDS011;2313;48.552;9.370;2024-03-02T07:05:07;6.40;;;4.43;;
4601;SDS011;2313;48.552;9.370;2024-03-02T07:07:33;5.63;;;4.10;;
4601;SDS011;2313;48.552;9.370;2024-03-02T07:10:00;9.03;;;4.30;;
4601;SDS011;2313;48.552;9.370;2024-03-02T07:12:25;5.40;;;4.27;;
4601;SDS011;2313;48.552;9.370;2024-03-02T07:14:51;5.60;;;4.40;;
4601;SDS011;2313;48.552;9.370;2024-03-02T07:17:32;6.17;;;5.27;;
4601;SDS011;2313;48.552;9.370;2024-03-02T07:19:57;6.40;;;4.60;;
4601;SDS011;2313;48.552;9.370;2024-03-02T07:22:23;4.93;;;3.97;;
4601;SDS011;2313;48.552;9.370;2024-03-02T07:24:49;4.17;;;3.63;;
4601;SDS011;2313;48.552;9.370;2024-03-02T07:27:15;3.90;;;3.43;;
4601;SDS011;2313;48.552;9.370;2024-03-02T07:29:41;3.27;;;3.03;;
4601;SDS011;2313;48.552;9.370;2024-03-02T07:32:07;5.80;;;3.70;;
4601;SDS011;2313;48.552;9.370;2024-03-02T07:34:33;3.97;;;3.57;;
4601;SDS011;2313;48.552;9.370;2024-03-02T07:36:59;4.90;;;3.30;;
4601;SDS011;2313;48.552;9.370;2024-03-02T07:39:25;5.73;;;3.60;;
4601;SDS011;2313;48.552;9.370;2024-03-02T07:41:51;4.20;;;3.50;;
4601;SDS011;2313;48.552;9.370;2024-03-02T07:44:17;4.37;;;3.20;;
4601;SDS011;2313;48.552;9.370;2024-03-02T07:46:44;3.53;;;3.20;;
4601;SDS011;2313;48.552;9.370;2024-03-02T07:49:16;5.90;;;4.00;;
4601;SDS011;2313;48.552;9.370;2024-03-02T07:51:43;4.03;;;3.50;;
4601;SDS011;2313;48.552;9.370;2024-03-02T07:54:09;5.20;;;4.00;;
4601;SDS011;2313;48.552;9.370;2024-03-02T07:56:34;5.30;;;4.30;;
4601;SDS011;2313;48.552;9.370;2024-03-02T07:59:03;4.37;;;3.80;;
4601;SDS011;2313;48.552;9.370;2024-03-02T08:01:30;3.60;;;3.20;;
4601;SDS011;2313;48.552;9.370;2024-03-02T08:03:59;4.00;;;3.60;;
4601;SDS011;2313;48.552;9.370;2024-03-02T08:06:26;4.50;;;3.77;;
4601;SDS011;2313;48.552;9.370;2024-03-02T08:08:53;4.60;;;4.07;;
4601;SDS011;2313;48.552;9.370;2024-03-02T08:11:19;3.87;;;3.43;;
4601;SDS011;2313;48.552;9.370;2024-03-02T08:13:45;3.07;;;2.80;;
4601;SDS011;2313;48.552;9.370;2024-03-02T08:16:11;5.23;;;4.37;;
4601;SDS011;2313;48.552;9.370;2024-03-02T08:18:36;3.90;;;2.97;;
4601;SDS011;2313;48.552;9.370;2024-03-02T08:21:02;3.70;;;3.20;;
4601;SDS011;2313;48.552;9.370;2024-03-02T08:23:28;4.17;;;3.73;;
4601;SDS011;2313;48.552;9.370;2024-03-02T08:25:54;3.93;;;3.40;;
4601;SDS011;2313;48.552;9.370;2024-03-02T08:28:19;4.97;;;4.03;;
4601;SDS011;2313;48.552;9.370;2024-03-02T08:30:45;4.40;;;3.47;;
4601;SDS011;2313;48.552;9.370;2024-03-02T08:33:10;5.00;;;4.00;;
4601;SDS011;2313;48.552;9.370;2024-03-02T08:35:36;5.70;;;4.47;;
4601;SDS011;2313;48.552;9.370;2024-03-02T08:38:02;4.30;;;3.50;;
4601;SDS011;2313;48.552;9.370;2024-03-02T08:40:29;3.90;;;3.50;;
4601;SDS011;2313;48.552;9.370;2024-03-02T08:42:56;5.03;;;3.50;;
4601;SDS011;2313;48.552;9.370;2024-03-02T08:45:22;3.47;;;3.17;;
4601;SDS011;2313;48.552;9.370;2024-03-02T08:47:48;4.00;;;3.20;;
4601;SDS011;2313;48.552;9.370;2024-03-02T08:50:13;3.30;;;3.00;;
4601;SDS011;2313;48.552;9.370;2024-03-02T08:52:39;3.50;;;3.20;;
4601;SDS011;2313;48.552;9.370;2024-03-02T08:55:05;4.80;;;3.33;;
4601;SDS011;2313;48.552;9.370;2024-03-02T08:57:32;5.10;;;3.37;;
4601;SDS011;2313;48.552;9.370;2024-03-02T08:59:58;5.03;;;3.23;;
4601;SDS011;2313;48.552;9.370;2024-03-02T09:02:24;4.30;;;3.30;;
4601;SDS011;2313;48.552;9.370;2024-03-02T09:04:50;4.73;;;4.10;;
4601;SDS011;2313;48.552;9.370;2024-03-02T09:07:15;3.73;;;3.30;;
4601;SDS011;2313;48.552;9.370;2024-03-02T09:09:41;5.23;;;3.90;;
4601;SDS011;2313;48.552;9.370;2024-03-02T09:12:06;4.10;;;3.50;;
4601;SDS011;2313;48.552;9.370;2024-03-02T09:14:32;4.30;;;3.67;;
4601;SDS011;2313;48.552;9.370;2024-03-02T09:16:59;3.93;;;3.03;;
4601;SDS011;2313;48.552;9.370;2024-03-02T09:19:25;4.70;;;3.83;;
4601;SDS011;2313;48.552;9.370;2024-03-02T09:21:51;3.20;;;2.80;;
4601;SDS011;2313;48.552;9.370;2024-03-02T09:24:16;3.83;;;3.37;;
4601;SDS011;2313;48.552;9.370;2024-03-02T09:26:42;3.33;;;2.80;;
4601;SDS011;2313;48.552;9.370;2024-03-02T09:29:07;4.90;;;3.70;;
4601;SDS011;2313;48.552;9.370;2024-03-02T09:31:38;4.00;;;2.83;;
4601;SDS011;2313;48.552;9.370;2024-03-02T09:34:07;3.87;;;3.47;;
4601;SDS011;2313;48.552;9.370;2024-03-02T09:36:33;2.90;;;2.63;;
4601;SDS011;2313;48.552;9.370;2024-03-02T09:38:59;3.60;;;2.60;;
4601;SDS011;2313;48.552;9.370;2024-03-02T09:41:25;3.70;;;3.20;;
4601;SDS011;2313;48.552;9.370;2024-03-02T09:43:50;3.70;;;2.43;;
4601;SDS011;2313;48.552;9.370;2024-03-02T09:46:16;3.40;;;3.00;;
4601;SDS011;2313;48.552;9.370;2024-03-02T09:48:45;2.83;;;2.57;;
4601;SDS011;2313;48.552;9.370;2024-03-02T09:51:11;2.97;;;2.73;;
4601;SDS011;2313;48.552;9.370;2024-03-02T09:53:37;3.53;;;2.53;;
4601;SDS011;2313;48.552;9.370;2024-03-02T09:56:03;4.30;;;3.30;;
4601;SDS011;2313;48.552;9.370;2024-03-02T09:58:32;2.63;;;2.40;;
4601;SDS011;2313;48.552;9.370;2024-03-02T10:00:58;2.60;;;2.30;;
4601;SDS011;2313;48.552;9.370;2024-03-02T10:03:23;2.27;;;2.07;;
4601;SDS011;2313;48.552;9.370;2024-03-02T10:05:52;3.87;;;2.20;;
4601;SDS011;2313;48.552;9.370;2024-03-02T10:08:17;2.00;;;1.80;;
4601;SDS011;2313;48.552;9.370;2024-03-02T10:10:43;2.77;;;1.93;;
4601;SDS011;2313;48.552;9.370;2024-03-02T10:13:10;2.60;;;1.93;;
4601;SDS011;2313;48.552;9.370;2024-03-02T10:15:36;2.90;;;2.07;;
4601;SDS011;2313;48.552;9.370;2024-03-02T10:18:03;2.37;;;2.17;;
4601;SDS011;2313;48.552;9.370;2024-03-02T10:20:29;2.43;;;2.20;;
4601;SDS011;2313;48.552;9.370;2024-03-02T10:23:09;3.67;;;2.37;;
4601;SDS011;2313;48.552;9.370;2024-03-02T10:25:35;2.73;;;2.17;;
4601;SDS011;2313;48.552;9.370;2024-03-02T10:28:01;2.47;;;2.27;;
4601;SDS011;2313;48.552;9.370;2024-03-02T10:30:27;6.73;;;1.63;;
4601;SDS011;2313;48.552;9.370;2024-03-02T10:32:56;2.87;;;2.13;;
4601;SDS011;2313;48.552;9.370;2024-03-02T10:35:22;3.93;;;3.10;;
4601;SDS011;2313;48.552;9.370;2024-03-02T10:37:48;3.17;;;2.30;;
4601;SDS011;2313;48.552;9.370;2024-03-02T10:40:15;2.37;;;2.17;;
4601;SDS011;2313;48.552;9.370;2024-03-02T10:42:43;5.50;;;2.30;;
4601;SDS011;2313;48.552;9.370;2024-03-02T10:45:10;2.83;;;2.57;;
4601;SDS011;2313;48.552;9.370;2024-03-02T10:47:37;2.40;;;2.20;;
4601;SDS011;2313;48.552;9.370;2024-03-02T10:50:06;7.63;;;2.70;;
4601;SDS011;2313;48.552;9.370;2024-03-02T10:52:36;2.93;;;2.10;;
4601;SDS011;2313;48.552;9.370;2024-03-02T10:55:02;2.37;;;2.17;;
4601;SDS011;2313;48.552;9.370;2024-03-02T10:57:33;2.63;;;2.10;;
4601;SDS011;2313;48.552;9.370;2024-03-02T11:00:18;2.90;;;1.40;;
4601;SDS011;2313;48.552;9.370;2024-03-02T11:02:50;2.20;;;2.00;;
4601;SDS011;2313;48.552;9.370;2024-03-02T11:05:20;2.77;;;1.97;;
4601;SDS011;2313;48.552;9.370;2024-03-02T11:07:57;2.77;;;2.30;;
4601;SDS011;2313;48.552;9.370;2024-03-02T11:10:35;2.50;;;2.00;;
4601;SDS011;2313;48.552;9.370;2024-03-02T11:13:08;3.13;;;2.17;;
4601;SDS011;2313;48.552;9.370;2024-03-02T11:15:36;2.03;;;1.83;;
4601;SDS011;2313;48.552;9.370;2024-03-02T11:18:03;1.90;;;1.80;;
4601;SDS011;2313;48.552;9.370;2024-03-02T11:20:33;2.10;;;1.67;;
4601;SDS011;2313;48.552;9.370;2024-03-02T11:23:08;2.13;;;1.67;;
4601;SDS011;2313;48.552;9.370;2024-03-02T11:25:35;2.60;;;1.93;;
4601;SDS011;2313;48.552;9.370;2024-03-02T11:28:02;7.07;;;4.03;;
4601;SDS011;2313;48.552;9.370;2024-03-02T11:32:58;2.47;;;2.07;;
4601;SDS011;2313;48.552;9.370;2024-03-02T11:35:24;8.43;;;4.40;;
4601;SDS011;2313;48.552;9.370;2024-03-02T11:37:51;8.97;;;4.07;;
4601;SDS011;2313;48.552;9.370;2024-03-02T11:40:35;6.97;;;3.67;;
4601;SDS011;2313;48.552;9.370;2024-03-02T11:43:04;3.40;;;1.60;;
4601;SDS011;2313;48.552;9.370;2024-03-02T11:45:31;9.87;;;4.27;;
4601;SDS011;2313;48.552;9.370;2024-03-02T11:47:58;8.60;;;4.60;;
4601;SDS011;2313;48.552;9.370;2024-03-02T11:53:26;1.43;;;1.33;;
4601;SDS011;2313;48.552;9.370;2024-03-02T11:55:55;10.60;;;1.00;;
4601;SDS011;2313;48.552;9.370;2024-03-02T11:58:21;1.13;;;0.70;;
4601;SDS011;2313;48.552;9.370;2024-03-02T12:00:52;2.30;;;0.70;;
4601;SDS011;2313;48.552;9.370;2024-03-02T12:03:24;2.10;;;1.03;;
4601;SDS011;2313;48.552;9.370;2024-03-02T12:05:51;1.10;;;0.90;;
4601;SDS011;2313;48.552;9.370;2024-03-02T12:08:20;2.07;;;1.00;;
4601;SDS011;2313;48.552;9.370;2024-03-02T12:10:59;1.10;;;0.90;;
4601;SDS011;2313;48.552;9.370;2024-03-02T12:13:25;1.70;;;1.00;;
4601;SDS011;2313;48.552;9.370;2024-03-02T12:15:54;1.20;;;1.10;;
4601;SDS011;2313;48.552;9.370;2024-03-02T12:18:23;2.60;;;1.70;;
4601;SDS011;2313;48.552;9.370;2024-03-02T12:20:50;2.37;;;1.50;;
4601;SDS011;2313;48.552;9.370;2024-03-02T12:23:18;7.60;;;3.00;;
4601;SDS011;2313;48.552;9.370;2024-03-02T12:25:44;2.20;;;1.40;;
4601;SDS011;2313;48.552;9.370;2024-03-02T12:28:11;1.40;;;1.30;;
4601;SDS011;2313;48.552;9.370;2024-03-02T12:30:36;1.77;;;1.30;;
4601;SDS011;2313;48.552;9.370;2024-03-02T12:33:02;0.90;;;0.73;;
4601;SDS011;2313;48.552;9.370;2024-03-02T12:35:29;1.00;;;0.73;;
4601;SDS011;2313;48.552;9.370;2024-03-02T12:37:55;1.27;;;0.90;;
4601;SDS011;2313;48.552;9.370;2024-03-02T12:40:20;2.60;;;1.03;;
4601;SDS011;2313;48.552;9.370;2024-03-02T12:42:47;1.10;;;0.97;;
4601;SDS011;2313;48.552;9.370;2024-03-02T12:45:15;1.70;;;1.30;;
4601;SDS011;2313;48.552;9.370;2024-03-02T12:47:41;1.30;;;1.10;;
4601;SDS011;2313;48.552;9.370;2024-03-02T12:50:07;1.27;;;1.10;;
4601;SDS011;2313;48.552;9.370;2024-03-02T12:52:34;0.90;;;0.80;;
4601;SDS011;2313;48.552;9.370;2024-03-02T12:55:01;4.00;;;1.40;;
4601;SDS011;2313;48.552;9.370;2024-03-02T12:57:28;1.20;;;1.10;;
4601;SDS011;2313;48.552;9.370;2024-03-02T13:00:01;1.50;;;1.10;;
4601;SDS011;2313;48.552;9.370;2024-03-02T13:02:45;1.03;;;0.93;;
4601;SDS011;2313;48.552;9.370;2024-03-02T13:05:11;2.53;;;1.20;;
4601;SDS011;2313;48.552;9.370;2024-03-02T13:07:40;1.17;;;0.90;;
4601;SDS011;2313;48.552;9.370;2024-03-02T13:10:10;1.30;;;0.90;;
4601;SDS011;2313;48.552;9.370;2024-03-02T13:12:36;3.10;;;0.90;;
4601;SDS011;2313;48.552;9.370;2024-03-02T13:15:02;1.37;;;0.90;;
4601;SDS011;2313;48.552;9.370;2024-03-02T13:17:28;1.50;;;0.60;;
4601;SDS011;2313;48.552;9.370;2024-03-02T13:19:57;2.13;;;1.00;;
4601;SDS011;2313;48.552;9.370;2024-03-02T13:22:24;1.67;;;0.83;;
4601;SDS011;2313;48.552;9.370;2024-03-02T13:24:51;1.60;;;0.90;;
4601;SDS011;2313;48.552;9.370;2024-03-02T13:27:17;2.10;;;0.90;;
4601;SDS011;2313;48.552;9.370;2024-03-02T13:29:46;1.33;;;0.70;;
4601;SDS011;2313;48.552;9.370;2024-03-02T13:32:13;5.17;;;1.60;;
4601;SDS011;2313;48.552;9.370;2024-03-02T13:34:42;0.90;;;0.70;;
4601;SDS011;2313;48.552;9.370;2024-03-02T13:37:08;1.77;;;1.27;;
4601;SDS011;2313;48.552;9.370;2024-03-02T13:39:34;2.77;;;1.27;;
4601;SDS011;2313;48.552;9.370;2024-03-02T13:42:08;1.93;;;1.20;;
4601;SDS011;2313;48.552;9.370;2024-03-02T13:44:34;2.27;;;1.03;;
4601;SDS011;2313;48.552;9.370;2024-03-02T13:47:00;2.13;;;1.17;;
4601;SDS011;2313;48.552;9.370;2024-03-02T13:49:26;1.33;;;1.23;;
4601;SDS011;2313;48.552;9.370;2024-03-02T13:52:04;1.20;;;1.07;;
4601;SDS011;2313;48.552;9.370;2024-03-02T13:54:39;1.20;;;1.10;;
4601;SDS011;2313;48.552;9.370;2024-03-02T13:57:06;2.07;;;1.40;;
4601;SDS011;2313;48.552;9.370;2024-03-02T13:59:36;1.90;;;1.70;;
4601;SDS011;2313;48.552;9.370;2024-03-02T14:02:02;2.47;;;2.03;;
4601;SDS011;2313;48.552;9.370;2024-03-02T14:04:30;3.10;;;1.70;;
4601;SDS011;2313;48.552;9.370;2024-03-02T14:06:56;5.73;;;1.97;;
4601;SDS011;2313;48.552;9.370;2024-03-02T14:09:22;1.63;;;1.53;;
4601;SDS011;2313;48.552;9.370;2024-03-02T14:11:49;1.37;;;1.27;;
4601;SDS011;2313;48.552;9.370;2024-03-02T14:14:15;1.50;;;1.30;;
4601;SDS011;2313;48.552;9.370;2024-03-02T14:16:41;1.50;;;1.40;;
4601;SDS011;2313;48.552;9.370;2024-03-02T14:19:06;4.10;;;1.10;;
4601;SDS011;2313;48.552;9.370;2024-03-02T14:21:34;2.23;;;1.13;;
4601;SDS011;2313;48.552;9.370;2024-03-02T14:24:00;1.90;;;1.20;;
4601;SDS011;2313;48.552;9.370;2024-03-02T14:26:26;2.83;;;0.93;;
4601;SDS011;2313;48.552;9.370;2024-03-02T14:28:53;1.07;;;0.77;;
4601;SDS011;2313;48.552;9.370;2024-03-02T14:31:19;1.50;;;1.00;;
4601;SDS011;2313;48.552;9.370;2024-03-02T14:33:45;1.93;;;1.00;;
4601;SDS011;2313;48.552;9.370;2024-03-02T14:36:11;1.87;;;1.40;;
4601;SDS011;2313;48.552;9.370;2024-03-02T14:38:37;3.10;;;1.70;;
4601;SDS011;2313;48.552;9.370;2024-03-02T14:41:04;2.67;;;1.40;;
4601;SDS011;2313;48.552;9.370;2024-03-02T14:43:30;1.77;;;1.50;;
4601;SDS011;2313;48.552;9.370;2024-03-02T14:45:55;1.20;;;1.00;;
4601;SDS011;2313;48.552;9.370;2024-03-02T14:48:21;1.87;;;1.43;;
4601;SDS011;2313;48.552;9.370;2024-03-02T14:50:47;2.50;;;1.53;;
4601;SDS011;2313;48.552;9.370;2024-03-02T14:53:13;2.33;;;1.20;;
4601;SDS011;2313;48.552;9.370;2024-03-02T14:55:39;1.43;;;1.33;;
4601;SDS011;2313;48.552;9.370;2024-03-02T14:58:04;1.00;;;0.90;;
4601;SDS011;2313;48.552;9.370;2024-03-02T15:00:30;1.83;;;1.57;;
4601;SDS011;2313;48.552;9.370;2024-03-02T15:02:55;1.33;;;1.10;;
4601;SDS011;2313;48.552;9.370;2024-03-02T15:05:21;1.60;;;1.00;;
4601;SDS011;2313;48.552;9.370;2024-03-02T15:07:47;1.93;;;1.30;;
4601;SDS011;2313;48.552;9.370;2024-03-02T15:10:12;2.50;;;1.60;;
4601;SDS011;2313;48.552;9.370;2024-03-02T15:12:38;3.53;;;1.27;;
4601;SDS011;2313;48.552;9.370;2024-03-02T15:15:04;2.77;;;1.70;;
4601;SDS011;2313;48.552;9.370;2024-03-02T15:17:30;2.80;;;2.13;;
4601;SDS011;2313;48.552;9.370;2024-03-02T15:19:55;2.77;;;2.20;;
4601;SDS011;2313;48.552;9.370;2024-03-02T15:22:21;2.30;;;2.03;;